Time;durP1;ratioP1;P1;durP2;ratioP2;P2;SDS_P1;SDS_P2;PMS_P1;PMS_P2;Temp;Humidity;BMP_temperature;BMP_pressure;BME280_temperature;BME280_humidity;BME280_pressure;Samples;Min_cycle;Max_cycle;Signal;HPM_P1;HPM_P2
2023/07/03 00:02:14;;;;;;;10.73;6.88;;;;;;;;;;5027527;28;20521;-61
2023/07/03 00:04:45;;;;;;;9.95;7.15;;;;;;;;;;5026604;28;20108;-61
2023/07/03 00:07:20;;;;;;;10.50;6.78;;;;;;;;;;5025018;28;20045;-61
2023/07/03 00:09:55;;;;;;;11.02;6.85;;;;;;;;;;5027782;28;20049;-61
2023/07/03 00:12:30;;;;;;;11.50;8.13;;;;;;;;;;5024145;28;20083;-61
2023/07/03 00:15:08;;;;;;;9.43;7.28;;;;;;;;;;5026761;28;20122;-60
2023/07/03 00:20:33;;;;;;;8.38;6.32;;;;;;;;;;5024836;28;20033;-60
2023/07/03 00:23:09;;;;;;;12.38;7.32;;;;;;;;;;5034000;28;20032;-61
2023/07/03 00:25:41;;;;;;;8.75;6.90;;;;;;;;;;5029901;28;20072;-61
2023/07/03 00:28:15;;;;;;;11.23;6.18;;;;;;;;;;5021704;28;21285;-60
2023/07/03 00:33:46;;;;;;;10.57;7.03;;;;;;;;;;5017438;28;20043;-61
2023/07/03 00:36:24;;;;;;;9.15;6.30;;;;;;;;;;5026737;28;20029;-61
2023/07/03 00:39:08;;;;;;;10.30;6.32;;;;;;;;;;5009197;28;20042;-61
2023/07/03 00:41:44;;;;;;;9.88;6.78;;;;;;;;;;5025966;28;20472;-61
2023/07/03 00:44:28;;;;;;;13.43;6.47;;;;;;;;;;5005416;28;20025;-61
2023/07/03 00:47:03;;;;;;;9.77;6.45;;;;;;;;;;5018915;28;20040;-61
2023/07/03 00:49:36;;;;;;;8.98;6.40;;;;;;;;;;5020160;28;20022;-61
2023/07/03 00:52:05;;;;;;;12.85;7.43;;;;;;;;;;5012369;28;20449;-61
2023/07/03 00:54:49;;;;;;;11.85;6.68;;;;;;;;;;5014770;28;20034;-61
2023/07/03 00:57:50;;;;;;;11.02;6.60;;;;;;;;;;5021707;28;20407;-61
2023/07/03 01:00:25;;;;;;;12.00;6.72;;;;;;;;;;5025820;28;20051;-61
2023/07/03 01:03:02;;;;;;;8.75;6.38;;;;;;;;;;5026917;28;20064;-61
2023/07/03 01:05:42;;;;;;;10.93;6.85;;;;;;;;;;5026623;28;20125;-61
2023/07/03 01:08:11;;;;;;;10.00;6.97;;;;;;;;;;5029227;28;20026;-61
2023/07/03 01:10:38;;;;;;;12.20;6.65;;;;;;;;;;5008100;28;20025;-61
2023/07/03 01:13:23;;;;;;;13.10;8.00;;;;;;;;;;5029547;28;20032;-61
2023/07/03 01:15:56;;;;;;;11.02;6.80;;;;;;;;;;4981623;28;20042;-61
2023/07/03 01:18:22;;;;;;;10.13;7.40;;;;;;;;;;5026772;28;20026;-61
2023/07/03 01:21:27;;;;;;;11.50;6.78;;;;;;;;;;5025820;28;20038;-61
2023/07/03 01:24:00;;;;;;;8.80;6.53;;;;;;;;;;4964503;28;20055;-61
2023/07/03 01:27:00;;;;;;;11.13;6.65;;;;;;;;;;4968733;28;20046;-61
2023/07/03 01:29:30;;;;;;;9.48;6.10;;;;;;;;;;4967996;28;20131;-61
2023/07/03 01:32:00;;;;;;;13.98;6.63;;;;;;;;;;5027535;28;20084;-61
2023/07/03 01:34:35;;;;;;;12.68;7.53;;;;;;;;;;5005584;28;20487;-61
2023/07/03 01:37:10;;;;;;;12.18;7.82;;;;;;;;;;5030790;28;20566;-61
2023/07/03 01:39:37;;;;;;;9.95;6.93;;;;;;;;;;5005830;28;20029;-61
2023/07/03 01:42:10;;;;;;;8.15;6.40;;;;;;;;;;5028129;28;20025;-61
2023/07/03 01:45:04;;;;;;;13.52;7.35;;;;;;;;;;5026475;28;20022;-61
2023/07/03 01:47:37;;;;;;;9.48;7.13;;;;;;;;;;5026759;28;20029;-61
2023/07/03 01:50:29;;;;;;;8.55;6.60;;;;;;;;;;5025663;28;20490;-61
2023/07/03 01:53:16;;;;;;;13.10;7.70;;;;;;;;;;5025579;28;20124;-61
2023/07/03 01:55:53;;;;;;;11.35;7.60;;;;;;;;;;5025182;28;20033;-61
2023/07/03 01:59:04;;;;;;;13.02;7.00;;;;;;;;;;5022695;28;20022;-61
2023/07/03 02:01:51;;;;;;;10.90;7.63;;;;;;;;;;4969018;28;20090;-61
2023/07/03 02:04:24;;;;;;;11.20;6.70;;;;;;;;;;4971910;28;20571;-61
2023/07/03 02:06:54;;;;;;;10.65;7.00;;;;;;;;;;5007933;28;20053;-62
2023/07/03 02:09:26;;;;;;;10.70;8.18;;;;;;;;;;5026817;28;20025;-61
2023/07/03 02:11:55;;;;;;;12.13;6.80;;;;;;;;;;5029790;28;20045;-61
2023/07/03 02:14:42;;;;;;;8.75;6.40;;;;;;;;;;5013999;28;20025;-61
2023/07/03 02:17:12;;;;;;;10.60;7.10;;;;;;;;;;5009311;28;20037;-61
2023/07/03 02:19:49;;;;;;;11.70;7.85;;;;;;;;;;5034326;28;20041;-61
2023/07/03 02:22:18;;;;;;;13.45;7.75;;;;;;;;;;5038109;28;20021;-61
2023/07/03 02:24:48;;;;;;;12.20;6.63;;;;;;;;;;5031820;28;20558;-61
2023/07/03 02:27:15;;;;;;;12.90;7.63;;;;;;;;;;5030839;28;20112;-61
2023/07/03 02:33:00;;;;;;;12.57;7.65;;;;;;;;;;5025202;28;20087;-61
2023/07/03 02:35:43;;;;;;;9.73;7.30;;;;;;;;;;5024783;28;20406;-61
2023/07/03 02:38:14;;;;;;;10.52;7.53;;;;;;;;;;5032616;28;20032;-61
2023/07/03 02:40:59;;;;;;;10.95;6.78;;;;;;;;;;5009409;28;20029;-61
2023/07/03 02:44:04;;;;;;;8.60;6.60;;;;;;;;;;5037161;28;20141;-61
2023/07/03 02:46:41;;;;;;;8.73;7.18;;;;;;;;;;5021894;28;20026;-61
2023/07/03 02:49:30;;;;;;;11.00;7.38;;;;;;;;;;5024824;28;20032;-61
2023/07/03 02:52:14;;;;;;;11.75;7.43;;;;;;;;;;5028325;28;20071;-61
2023/07/03 02:54:48;;;;;;;12.38;7.43;;;;;;;;;;5029335;28;20029;-61
2023/07/03 02:57:36;;;;;;;12.95;7.93;;;;;;;;;;5012336;28;20029;-61
2023/07/03 03:00:20;;;;;;;8.77;6.82;;;;;;;;;;5024603;28;20630;-61
2023/07/03 03:02:53;;;;;;;12.13;6.88;;;;;;;;;;5027828;28;20030;-61
2023/07/03 03:08:27;;;;;;;9.57;6.93;;;;;;;;;;5027482;28;20033;-61
2023/07/03 03:10:54;;;;;;;10.65;7.60;;;;;;;;;;5024870;28;20387;-59
2023/07/03 03:13:23;;;;;;;9.02;6.20;;;;;;;;;;5030351;28;20037;-59
2023/07/03 03:15:56;;;;;;;12.13;7.85;;;;;;;;;;5023538;28;20029;-59
2023/07/03 03:18:31;;;;;;;10.13;6.60;;;;;;;;;;5023899;28;20432;-59
2023/07/03 03:21:03;;;;;;;15.63;8.13;;;;;;;;;;5036008;28;20033;-59
2023/07/03 03:23:53;;;;;;;9.50;7.63;;;;;;;;;;5013885;28;20129;-59
2023/07/03 03:26:23;;;;;;;13.23;7.55;;;;;;;;;;5027101;28;20072;-61
2023/07/03 03:31:44;;;;;;;10.70;6.95;;;;;;;;;;5025657;28;20033;-60
2023/07/03 03:34:32;;;;;;;10.55;7.00;;;;;;;;;;5005663;28;20442;-60
2023/07/03 03:37:18;;;;;;;10.02;7.07;;;;;;;;;;5008038;28;20464;-59
2023/07/03 03:40:11;;;;;;;13.00;7.78;;;;;;;;;;5020981;28;20030;-60
2023/07/03 03:43:07;;;;;;;12.57;7.85;;;;;;;;;;5019090;28;20029;-60
2023/07/03 03:45:38;;;;;;;9.25;6.72;;;;;;;;;;5016972;28;20391;-60
2023/07/03 03:48:13;;;;;;;8.80;6.40;;;;;;;;;;5008803;28;20033;-60
2023/07/03 03:50:39;;;;;;;12.48;7.40;;;;;;;;;;5017839;28;20498;-59
2023/07/03 03:53:16;;;;;;;12.73;7.63;;;;;;;;;;5030477;28;20029;-60
2023/07/03 03:55:55;;;;;;;12.73;7.20;;;;;;;;;;5003198;28;20029;-60
2023/07/03 03:58:33;;;;;;;10.70;7.20;;;;;;;;;;5030824;28;20116;-60
2023/07/03 04:01:28;;;;;;;10.63;6.88;;;;;;;;;;5027688;28;20045;-60
2023/07/03 04:04:01;;;;;;;11.57;6.60;;;;;;;;;;5033988;28;20028;-60
2023/07/03 04:06:38;;;;;;;7.75;6.20;;;;;;;;;;5031118;28;20099;-59
2023/07/03 04:09:15;;;;;;;14.02;7.72;;;;;;;;;;5031025;28;20064;-60
2023/07/03 04:11:48;;;;;;;10.00;7.13;;;;;;;;;;5028597;28;20079;-60
2023/07/03 04:14:20;;;;;;;8.90;6.75;;;;;;;;;;5036675;28;20025;-60
2023/07/03 04:16:50;;;;;;;10.48;7.00;;;;;;;;;;5004959;28;20037;-60
2023/07/03 04:19:26;;;;;;;9.50;7.15;;;;;;;;;;5029961;28;20087;-60
2023/07/03 04:21:58;;;;;;;10.90;6.82;;;;;;;;;;5020338;28;20442;-59
2023/07/03 04:24:31;;;;;;;13.73;7.95;;;;;;;;;;5011732;28;20030;-60
2023/07/03 04:30:15;;;;;;;9.15;6.43;;;;;;;;;;4975043;28;20390;-60
2023/07/03 04:32:42;;;;;;;8.05;6.47;;;;;;;;;;5027067;28;20022;-60
2023/07/03 04:35:16;;;;;;;12.90;6.63;;;;;;;;;;5026983;28;20045;-60
2023/07/03 04:38:01;;;;;;;9.20;6.63;;;;;;;;;;5028592;28;20024;-60
2023/07/03 04:40:34;;;;;;;12.60;7.65;;;;;;;;;;5013220;28;20034;-59
2023/07/03 04:43:08;;;;;;;8.15;6.82;;;;;;;;;;5008368;28;20030;-60
2023/07/03 04:45:40;;;;;;;9.00;6.55;;;;;;;;;;5012007;28;20120;-59
2023/07/03 04:48:09;;;;;;;9.75;6.55;;;;;;;;;;5028467;28;20038;-60
2023/07/03 04:50:36;;;;;;;11.23;6.75;;;;;;;;;;5031438;28;20025;-62
2023/07/03 04:53:03;;;;;;;8.13;6.22;;;;;;;;;;5027315;28;20026;-62
2023/07/03 04:55:58;;;;;;;10.80;7.05;;;;;;;;;;5009394;28;20454;-59
2023/07/03 04:58:42;;;;;;;9.82;6.88;;;;;;;;;;5031439;28;20049;-60
2023/07/03 05:01:31;;;;;;;10.23;7.07;;;;;;;;;;5028552;28;20356;-60
2023/07/03 05:04:17;;;;;;;9.80;7.18;;;;;;;;;;5030116;28;20614;-59
2023/07/03 05:07:01;;;;;;;11.05;6.50;;;;;;;;;;5014055;28;20487;-60
2023/07/03 05:09:59;;;;;;;9.27;5.88;;;;;;;;;;5014572;28;20029;-61
2023/07/03 05:12:30;;;;;;;9.20;5.80;;;;;;;;;;5022044;28;20075;-61
2023/07/03 05:15:09;;;;;;;11.48;6.05;;;;;;;;;;5023861;28;21089;-61
2023/07/03 05:18:00;;;;;;;9.43;6.28;;;;;;;;;;5028491;28;20033;-60
2023/07/03 05:20:45;;;;;;;11.82;7.15;;;;;;;;;;5011820;28;20176;-60
2023/07/03 05:23:21;;;;;;;8.55;5.50;;;;;;;;;;5007385;28;20038;-60
2023/07/03 05:25:51;;;;;;;9.18;5.93;;;;;;;;;;5016933;28;20033;-60
2023/07/03 05:31:28;;;;;;;8.05;5.82;;;;;;;;;;5012408;28;20047;-60
2023/07/03 05:34:03;;;;;;;9.93;6.05;;;;;;;;;;5022199;28;20438;-60
2023/07/03 05:36:47;;;;;;;11.15;6.93;;;;;;;;;;5012863;28;20383;-60
2023/07/03 05:42:47;;;;;;;9.68;5.70;;;;;;;;;;4989735;28;20482;-60
2023/07/03 05:45:19;;;;;;;7.10;5.85;;;;;;;;;;5042504;28;20048;-60
2023/07/03 05:47:59;;;;;;;7.47;5.38;;;;;;;;;;5039291;28;20029;-60
2023/07/03 05:50:31;;;;;;;11.23;6.63;;;;;;;;;;5039219;28;20026;-60
2023/07/03 05:53:25;;;;;;;19.73;6.47;;;;;;;;;;5027241;28;20100;-60
2023/07/03 05:56:02;;;;;;;8.27;6.10;;;;;;;;;;5017041;28;20467;-60
2023/07/03 05:58:43;;;;;;;10.65;5.70;;;;;;;;;;5014185;28;20064;-60
2023/07/03 06:01:10;;;;;;;10.90;5.40;;;;;;;;;;5015086;28;20125;-61
2023/07/03 06:04:33;;;;;;;8.43;5.85;;;;;;;;;;5011393;28;20049;-60
2023/07/03 06:06:52;;;;;;;11.15;5.60;;;;;;;;;;5025752;28;20047;-60
2023/07/03 06:09:41;;;;;;;;;;;;;;;;;;;;;
2023/07/03 06:12:18;;;;;;;14.25;5.82;;;;;;;;;;5047911;28;20055;-60
2023/07/03 06:15:16;;;;;;;9.60;5.90;;;;;;;;;;5031659;28;20410;-60
2023/07/03 06:17:57;;;;;;;9.25;5.78;;;;;;;;;;5021633;28;20033;-60
2023/07/03 06:23:22;;;;;;;11.23;5.45;;;;;;;;;;4991977;28;20045;-60
2023/07/03 06:25:53;;;;;;;9.45;5.30;;;;;;;;;;5021110;28;20057;-60
2023/07/03 06:28:28;;;;;;;9.35;5.82;;;;;;;;;;5025885;28;20033;-60
2023/07/03 06:31:11;;;;;;;7.35;4.60;;;;;;;;;;5045601;28;20040;-60
2023/07/03 06:33:39;;;;;;;8.18;5.22;;;;;;;;;;5019790;28;20033;-60
2023/07/03 06:36:32;;;;;;;9.13;5.75;;;;;;;;;;5043717;28;20037;-60
2023/07/03 06:39:08;;;;;;;6.60;5.30;;;;;;;;;;5035688;28;20168;-60
2023/07/03 06:41:44;;;;;;;7.97;5.07;;;;;;;;;;5015573;28;20036;-60
2023/07/03 06:44:20;;;;;;;9.57;5.95;;;;;;;;;;5034121;28;20100;-60
2023/07/03 06:46:50;;;;;;;8.57;5.07;;;;;;;;;;4988068;28;20060;-60
2023/07/03 06:49:24;;;;;;;7.60;6.20;;;;;;;;;;5040155;28;20037;-60
2023/07/03 06:52:11;;;;;;;8.05;4.78;;;;;;;;;;5033766;28;20038;-60
2023/07/03 06:54:43;;;;;;;8.50;4.50;;;;;;;;;;5000283;28;20064;-60
2023/07/03 06:57:15;;;;;;;9.25;5.50;;;;;;;;;;5028889;28;20025;-61
2023/07/03 06:59:53;;;;;;;6.10;4.35;;;;;;;;;;5018774;28;20433;-61
2023/07/03 07:02:22;;;;;;;5.43;4.40;;;;;;;;;;5036277;28;20044;-61
2023/07/03 07:05:02;;;;;;;10.30;5.25;;;;;;;;;;5032571;28;20029;-59
2023/07/03 07:07:40;;;;;;;6.03;4.45;;;;;;;;;;5036184;28;20032;-59
2023/07/03 07:10:11;;;;;;;7.57;5.32;;;;;;;;;;5029307;28;20368;-59
2023/07/03 07:12:42;;;;;;;7.78;5.47;;;;;;;;;;4995717;28;20083;-59
2023/07/03 07:15:14;;;;;;;8.60;4.93;;;;;;;;;;5031092;28;20033;-59
2023/07/03 07:17:40;;;;;;;7.82;5.35;;;;;;;;;;4998519;28;20025;-59
2023/07/03 07:20:29;;;;;;;7.70;5.30;;;;;;;;;;5032836;28;20156;-59
2023/07/03 07:23:04;;;;;;;9.38;5.07;;;;;;;;;;5013899;28;20420;-61
2023/07/03 07:25:36;;;;;;;7.78;5.13;;;;;;;;;;5015561;28;20021;-61
2023/07/03 07:28:30;;;;;;;7.03;5.53;;;;;;;;;;5032439;28;20033;-60
2023/07/03 07:31:06;;;;;;;6.90;5.43;;;;;;;;;;5009464;28;20367;-60
2023/07/03 07:33:32;;;;;;;7.85;6.05;;;;;;;;;;5014780;28;20394;-60
2023/07/03 07:36:20;;;;;;;6.90;4.45;;;;;;;;;;5021542;28;20425;-60
2023/07/03 07:38:52;;;;;;;8.82;4.72;;;;;;;;;;5025303;28;20384;-60
2023/07/03 07:41:35;;;;;;;10.40;5.95;;;;;;;;;;5028610;28;20474;-60
2023/07/03 07:44:07;;;;;;;7.88;5.75;;;;;;;;;;5008770;28;20407;-60
2023/07/03 07:46:54;;;;;;;12.40;5.82;;;;;;;;;;5031942;28;20120;-60
2023/07/03 07:49:20;;;;;;;9.20;5.45;;;;;;;;;;5033004;28;20076;-60
2023/07/03 07:52:02;;;;;;;;;;;;;;;;;;;;;
2023/07/03 07:54:35;;;;;;;7.93;4.90;;;;;;;;;;5015786;28;20394;-60
2023/07/03 07:57:06;;;;;;;6.78;4.55;;;;;;;;;;5034748;28;20025;-60
2023/07/03 07:59:42;;;;;;;6.32;4.45;;;;;;;;;;5030874;28;20036;-60
2023/07/03 08:02:18;;;;;;;7.20;4.50;;;;;;;;;;5035158;28;20360;-60
2023/07/03 08:04:50;;;;;;;7.40;5.28;;;;;;;;;;5023864;28;20044;-60
2023/07/03 08:07:40;;;;;;;9.00;5.38;;;;;;;;;;5032327;28;20033;-61
2023/07/03 08:10:24;;;;;;;9.20;4.75;;;;;;;;;;5032434;28;20156;-60
2023/07/03 08:12:59;;;;;;;8.63;4.57;;;;;;;;;;5011973;28;20038;-60
2023/07/03 08:15:29;;;;;;;6.10;5.10;;;;;;;;;;5027546;28;20135;-60
2023/07/03 08:18:04;;;;;;;8.95;5.88;;;;;;;;;;5038072;28;20030;-60
2023/07/03 08:20:42;;;;;;;6.78;5.32;;;;;;;;;;5032285;28;20017;-60
2023/07/03 08:23:12;;;;;;;13.23;6.10;;;;;;;;;;5034067;28;20033;-60
2023/07/03 08:26:01;;;;;;;;;;;;;;;;;;;;;
2023/07/03 08:28:51;;;;;;;;;;;;;;;;;;;;;
2023/07/03 08:31:27;;;;;;;10.00;5.80;;;;;;;;;;5027777;28;20147;-60
2023/07/03 08:36:43;;;;;;;7.23;4.90;;;;;;;;;;5016347;28;20033;-61
2023/07/03 08:39:12;;;;;;;8.52;5.28;;;;;;;;;;5031064;28;20056;-60
2023/07/03 08:41:51;;;;;;;6.90;5.30;;;;;;;;;;5031553;28;20026;-60
2023/07/03 08:44:27;;;;;;;10.18;4.70;;;;;;;;;;5020757;28;20071;-60
2023/07/03 08:47:16;;;;;;;;;;;;;;;;;;;;;
2023/07/03 08:49:57;;;;;;;6.95;5.22;;;;;;;;;;5029840;28;20037;-61
2023/07/03 08:52:44;;;;;;;6.82;4.50;;;;;;;;;;5016969;28;20025;-60
2023/07/03 08:55:44;;;;;;;7.65;5.32;;;;;;;;;;5019741;28;20029;-60
2023/07/03 08:58:10;;;;;;;12.35;5.22;;;;;;;;;;4997575;28;20033;-60
2023/07/03 09:01:15;;;;;;;10.40;5.63;;;;;;;;;;5014897;28;20048;-61
2023/07/03 09:04:08;;;;;;;7.65;5.15;;;;;;;;;;4997448;28;20026;-60
2023/07/03 09:06:43;;;;;;;10.50;5.35;;;;;;;;;;5001230;28;20045;-61
2023/07/03 09:12:13;;;;;;;7.68;4.10;;;;;;;;;;5018399;28;20025;-61
2023/07/03 09:14:50;;;;;;;10.35;4.78;;;;;;;;;;5005114;28;20033;-60
2023/07/03 09:17:20;;;;;;;7.80;5.07;;;;;;;;;;5043254;28;20021;-61
2023/07/03 09:22:49;;;;;;;6.28;4.68;;;;;;;;;;5023407;28;20371;-60
2023/07/03 09:25:22;;;;;;;13.57;5.10;;;;;;;;;;5024160;28;20088;-60
2023/07/03 09:28:02;;;;;;;8.13;5.22;;;;;;;;;;5031481;28;20041;-60
2023/07/03 09:30:44;;;;;;;;;;;;;;;;;;;;;
2023/07/03 09:33:20;;;;;;;6.15;4.63;;;;;;;;;;5017651;28;20302;-60
2023/07/03 09:35:49;;;;;;;8.13;4.60;;;;;;;;;;5019919;28;20116;-60
2023/07/03 09:38:17;;;;;;;6.63;4.18;;;;;;;;;;5031187;28;20040;-60
2023/07/03 09:41:19;;;;;;;7.10;4.82;;;;;;;;;;5020224;28;20025;-61
2023/07/03 09:43:51;;;;;;;7.97;4.63;;;;;;;;;;5026154;28;20053;-60
2023/07/03 09:46:35;;;;;;;7.03;4.78;;;;;;;;;;5029522;28;20104;-61
2023/07/03 09:49:06;;;;;;;5.68;4.95;;;;;;;;;;5030120;28;20025;-61
2023/07/03 09:51:34;;;;;;;10.15;5.13;;;;;;;;;;5030871;28;20022;-60
2023/07/03 09:54:15;;;;;;;5.90;4.22;;;;;;;;;;5031103;28;20395;-61
2023/07/03 09:56:49;;;;;;;8.95;4.43;;;;;;;;;;5026419;28;20114;-61
2023/07/03 09:59:42;;;;;;;7.05;4.28;;;;;;;;;;5029560;28;20462;-60
2023/07/03 10:02:29;;;;;;;7.50;5.07;;;;;;;;;;5024151;28;20523;-60
2023/07/03 10:05:02;;;;;;;5.90;3.63;;;;;;;;;;5029324;28;20065;-60
2023/07/03 10:07:44;;;;;;;6.07;4.70;;;;;;;;;;5027529;28;20037;-61
2023/07/03 10:10:27;;;;;;;6.28;3.83;;;;;;;;;;5016773;28;20053;-61
2023/07/03 10:13:08;;;;;;;7.25;4.70;;;;;;;;;;5024628;28;20025;-61
2023/07/03 10:15:37;;;;;;;6.82;3.80;;;;;;;;;;5030518;28;20087;-61
2023/07/03 10:18:22;;;;;;;6.28;4.38;;;;;;;;;;5021307;28;20076;-60
2023/07/03 10:21:02;;;;;;;5.90;4.50;;;;;;;;;;5019996;28;20083;-60
2023/07/03 10:23:54;;;;;;;7.13;4.30;;;;;;;;;;5019805;28;20045;-60
2023/07/03 10:26:32;;;;;;;6.15;3.95;;;;;;;;;;5003166;28;20065;-61
2023/07/03 10:29:25;;;;;;;6.53;3.38;;;;;;;;;;5030197;28;20029;-61
2023/07/03 10:32:05;;;;;;;8.32;3.58;;;;;;;;;;5015920;28;20116;-61
2023/07/03 10:34:41;;;;;;;6.25;3.70;;;;;;;;;;5028649;28;20044;-61
2023/07/03 10:37:32;;;;;;;5.55;3.67;;;;;;;;;;5022038;28;20487;-61
2023/07/03 10:40:09;;;;;;;;;;;;;;;;;;;;;
2023/07/03 10:42:44;;;;;;;5.97;3.33;;;;;;;;;;5031606;28;19919;-60
2023/07/03 10:45:19;;;;;;;6.55;3.92;;;;;;;;;;5023695;28;20044;-60
2023/07/03 10:48:09;;;;;;;7.45;3.58;;;;;;;;;;5026880;28;20046;-61
2023/07/03 10:50:45;;;;;;;5.53;3.15;;;;;;;;;;5014676;28;20121;-61
2023/07/03 10:53:30;;;;;;;6.63;3.15;;;;;;;;;;5025899;28;20360;-60
2023/07/03 10:56:09;;;;;;;5.35;3.05;;;;;;;;;;5021665;28;20037;-61
2023/07/03 10:58:59;;;;;;;4.38;2.78;;;;;;;;;;5034063;28;20037;-60
2023/07/03 11:01:51;;;;;;;4.50;2.17;;;;;;;;;;5036774;28;20052;-61
2023/07/03 11:04:37;;;;;;;6.32;2.88;;;;;;;;;;5021146;28;20060;-61
2023/07/03 11:07:24;;;;;;;4.18;2.40;;;;;;;;;;5019442;28;20094;-60
2023/07/03 11:10:06;;;;;;;5.20;2.60;;;;;;;;;;5035276;28;20446;-61
2023/07/03 11:13:09;;;;;;;4.45;2.42;;;;;;;;;;5050035;28;20048;-61
2023/07/03 11:15:35;;;;;;;4.45;2.42;;;;;;;;;;5048538;28;20029;-60
2023/07/03 11:18:20;;;;;;;3.35;2.20;;;;;;;;;;5033356;28;20541;-61
2023/07/03 11:21:19;;;;;;;5.28;2.35;;;;;;;;;;5026535;28;20077;-60
2023/07/03 11:23:55;;;;;;;4.95;2.90;;;;;;;;;;5020984;28;20524;-60
2023/07/03 11:29:39;;;;;;;2.58;1.70;;;;;;;;;;5018995;28;20030;-60
2023/07/03 11:32:19;;;;;;;3.97;2.65;;;;;;;;;;5021302;28;20041;-61
2023/07/03 11:34:48;;;;;;;4.78;2.38;;;;;;;;;;5011681;28;20083;-61
2023/07/03 11:37:37;;;;;;;8.03;2.77;;;;;;;;;;5012797;28;20454;-60
2023/07/03 11:40:22;;;;;;;3.90;2.63;;;;;;;;;;5014703;28;20420;-61
2023/07/03 11:42:51;;;;;;;4.15;2.53;;;;;;;;;;5023003;28;20041;-61
2023/07/03 11:45:33;;;;;;;6.88;3.08;;;;;;;;;;5031805;28;20110;-60
2023/07/03 11:47:59;;;;;;;9.88;2.95;;;;;;;;;;5029468;28;20132;-61
2023/07/03 11:50:41;;;;;;;7.65;2.15;;;;;;;;;;4989950;28;20038;-61
2023/07/03 11:53:07;;;;;;;4.68;2.45;;;;;;;;;;5024447;28;20026;-61
2023/07/03 11:55:41;;;;;;;9.98;2.55;;;;;;;;;;5028382;28;20026;-61
2023/07/03 11:58:10;;;;;;;5.85;2.90;;;;;;;;;;5031781;28;20032;-61
2023/07/03 12:00:36;;;;;;;4.15;1.98;;;;;;;;;;5023459;28;20029;-61
2023/07/03 12:03:10;;;;;;;5.95;3.25;;;;;;;;;;5014859;28;20093;-61
2023/07/03 12:06:00;;;;;;;7.35;3.20;;;;;;;;;;5030946;28;20418;-61
2023/07/03 12:08:39;;;;;;;7.95;3.20;;;;;;;;;;5012112;28;20029;-61
2023/07/03 12:11:10;;;;;;;4.70;2.58;;;;;;;;;;5012085;28;20360;-61
2023/07/03 12:13:52;;;;;;;3.97;2.55;;;;;;;;;;5031337;28;20043;-61
2023/07/03 12:16:29;;;;;;;3.88;2.75;;;;;;;;;;5013572;28;20036;-61
2023/07/03 12:19:06;;;;;;;5.25;2.95;;;;;;;;;;5013620;28;20065;-61
2023/07/03 12:21:47;;;;;;;4.88;2.42;;;;;;;;;;5026298;28;20041;-62
2023/07/03 12:24:46;;;;;;;4.78;2.38;;;;;;;;;;5049881;28;20026;-61
2023/07/03 12:27:25;;;;;;;4.72;2.85;;;;;;;;;;5013617;28;20073;-61
2023/07/03 12:30:04;;;;;;;;;;;;;;;;;;;;;
2023/07/03 12:32:41;;;;;;;5.05;3.40;;;;;;;;;;5024171;28;20034;-61
2023/07/03 12:35:33;;;;;;;4.03;2.65;;;;;;;;;;5026919;28;20022;-61
2023/07/03 12:38:21;;;;;;;4.30;2.90;;;;;;;;;;5022877;28;20025;-61
2023/07/03 12:40:48;;;;;;;4.90;3.00;;;;;;;;;;5010486;28;20029;-61
2023/07/03 12:43:34;;;;;;;5.63;3.83;;;;;;;;;;5031263;28;20032;-61
2023/07/03 12:46:22;;;;;;;6.38;3.00;;;;;;;;;;5025620;28;20038;-61
2023/07/03 12:49:01;;;;;;;4.18;2.50;;;;;;;;;;5013104;28;20075;-61
2023/07/03 12:51:44;;;;;;;3.83;2.75;;;;;;;;;;5013397;28;20116;-61
2023/07/03 12:54:11;;;;;;;9.82;3.10;;;;;;;;;;5011829;28;20036;-61
2023/07/03 12:56:44;;;;;;;5.97;3.38;;;;;;;;;;5017836;28;20033;-61
2023/07/03 12:59:13;;;;;;;3.70;2.13;;;;;;;;;;5031484;28;20029;-61
2023/07/03 13:01:40;;;;;;;6.60;3.75;;;;;;;;;;5020296;28;20056;-61
2023/07/03 13:04:09;;;;;;;4.60;3.13;;;;;;;;;;5031112;28;20033;-61
2023/07/03 13:06:38;;;;;;;4.07;2.53;;;;;;;;;;5008193;28;20103;-61
2023/07/03 13:09:13;;;;;;;5.28;2.67;;;;;;;;;;5030071;28;20417;-61
2023/07/03 13:12:05;;;;;;;4.75;2.67;;;;;;;;;;5005273;28;20487;-61
2023/07/03 13:14:34;;;;;;;3.42;2.35;;;;;;;;;;5023380;28;20127;-61
2023/07/03 13:17:01;;;;;;;4.70;1.92;;;;;;;;;;5030857;28;20425;-61
2023/07/03 13:19:42;;;;;;;4.03;2.40;;;;;;;;;;5030263;28;20052;-61
2023/07/03 13:22:18;;;;;;;4.55;2.00;;;;;;;;;;5023480;28;20139;-61
2023/07/03 13:24:48;;;;;;;6.00;2.40;;;;;;;;;;5036681;28;20041;-61
2023/07/03 13:27:29;;;;;;;6.72;1.85;;;;;;;;;;5021981;28;20468;-61
2023/07/03 13:30:14;;;;;;;6.10;2.47;;;;;;;;;;4999905;28;20398;-61
2023/07/03 13:32:51;;;;;;;4.88;2.28;;;;;;;;;;5005493;28;20084;-61
2023/07/03 13:35:32;;;;;;;7.07;1.73;;;;;;;;;;5030318;28;20372;-61
2023/07/03 13:38:21;;;;;;;6.75;2.30;;;;;;;;;;5011948;28;20113;-61
2023/07/03 13:41:08;;;;;;;4.60;1.85;;;;;;;;;;5030357;28;20033;-61
2023/07/03 13:43:36;;;;;;;7.55;2.25;;;;;;;;;;5013793;28;20083;-61
2023/07/03 13:46:02;;;;;;;3.58;1.95;;;;;;;;;;5030543;28;20107;-61
2023/07/03 13:48:37;;;;;;;2.72;1.42;;;;;;;;;;5031042;28;20029;-61
2023/07/03 13:51:08;;;;;;;2.67;1.33;;;;;;;;;;5016722;28;20069;-61
2023/07/03 13:53:50;;;;;;;2.63;1.77;;;;;;;;;;5035349;28;20022;-61
2023/07/03 13:56:25;;;;;;;3.40;1.70;;;;;;;;;;5031168;28;20036;-61
2023/07/03 13:58:59;;;;;;;2.63;1.20;;;;;;;;;;5017979;28;20044;-62
2023/07/03 14:01:33;;;;;;;3.28;1.83;;;;;;;;;;5041196;28;20018;-61
2023/07/03 14:04:11;;;;;;;;;;;;;;;;;;;;;
2023/07/03 14:06:48;;;;;;;2.25;1.23;;;;;;;;;;5031364;28;20038;-61
2023/07/03 14:09:18;;;;;;;5.07;1.65;;;;;;;;;;5031272;28;20033;-61
2023/07/03 14:11:51;;;;;;;2.15;1.48;;;;;;;;;;5010024;28;20498;-61
2023/07/03 14:14:27;;;;;;;3.97;1.48;;;;;;;;;;5034552;28;20396;-61
2023/07/03 14:16:55;;;;;;;2.65;1.30;;;;;;;;;;5017592;28;20029;-61
2023/07/03 14:19:27;;;;;;;3.45;1.23;;;;;;;;;;5032157;28;20030;-61
2023/07/03 14:21:56;;;;;;;1.88;1.08;;;;;;;;;;5010824;28;20448;-61
2023/07/03 14:24:34;;;;;;;1.98;1.15;;;;;;;;;;5034859;28;20026;-61
2023/07/03 14:27:03;;;;;;;2.97;1.45;;;;;;;;;;5034172;28;20099;-62
2023/07/03 14:29:32;;;;;;;2.22;1.10;;;;;;;;;;5030569;28;20125;-62
2023/07/03 14:32:01;;;;;;;2.73;1.03;;;;;;;;;;5011865;28;20033;-61
2023/07/03 14:34:27;;;;;;;3.22;0.88;;;;;;;;;;5033985;28;20417;-61
2023/07/03 14:37:03;;;;;;;1.35;0.68;;;;;;;;;;5033184;28;20056;-61
2023/07/03 14:39:48;;;;;;;1.70;0.90;;;;;;;;;;5010052;28;20030;-61
2023/07/03 14:42:26;;;;;;;2.05;1.25;;;;;;;;;;5033904;28;20034;-59
2023/07/03 14:44:56;;;;;;;4.78;1.55;;;;;;;;;;5033093;28;20033;-62
2023/07/03 14:47:28;;;;;;;1.80;0.90;;;;;;;;;;5014450;28;20045;-62
2023/07/03 14:50:00;;;;;;;2.92;1.17;;;;;;;;;;5008665;28;20404;-62
2023/07/03 14:52:42;;;;;;;1.92;0.90;;;;;;;;;;5032640;28;20044;-60
2023/07/03 14:55:09;;;;;;;2.20;1.20;;;;;;;;;;5010075;28;20029;-59
2023/07/03 14:57:38;;;;;;;3.30;0.68;;;;;;;;;;4999414;28;20041;-60
2023/07/03 15:00:06;;;;;;;3.33;1.15;;;;;;;;;;5008728;28;20029;-60
2023/07/03 15:02:33;;;;;;;2.05;0.93;;;;;;;;;;5031954;28;20037;-60
2023/07/03 15:05:02;;;;;;;1.60;0.80;;;;;;;;;;5032920;28;20032;-60
2023/07/03 15:07:28;;;;;;;2.03;1.02;;;;;;;;;;5016036;28;20030;-60
2023/07/03 15:09:57;;;;;;;1.77;1.02;;;;;;;;;;4999148;28;20036;-60
2023/07/03 15:12:36;;;;;;;2.47;0.80;;;;;;;;;;5033382;28;20028;-61
2023/07/03 15:15:09;;;;;;;2.05;0.90;;;;;;;;;;5032547;28;20048;-61
2023/07/03 15:17:43;;;;;;;2.03;0.80;;;;;;;;;;5033319;28;20033;-61
2023/07/03 15:20:13;;;;;;;3.13;0.40;;;;;;;;;;4998091;28;20025;-61
2023/07/03 15:22:42;;;;;;;1.70;0.80;;;;;;;;;;4996304;28;20026;-61
2023/07/03 15:25:13;;;;;;;1.40;0.60;;;;;;;;;;5012846;28;20137;-61
2023/07/03 15:27:42;;;;;;;3.05;0.85;;;;;;;;;;5013810;28;20038;-61
2023/07/03 15:30:14;;;;;;;1.00;0.38;;;;;;;;;;5004122;28;20480;-61
2023/07/03 15:32:46;;;;;;;1.30;0.43;;;;;;;;;;4996123;28;20426;-61
2023/07/03 15:35:12;;;;;;;1.65;0.50;;;;;;;;;;4994860;28;20168;-61
2023/07/03 15:37:44;;;;;;;1.92;0.68;;;;;;;;;;5014649;28;20076;-61
2023/07/03 15:40:39;;;;;;;1.65;0.55;;;;;;;;;;5039535;28;20044;-62
2023/07/03 15:43:10;;;;;;;1.00;0.40;;;;;;;;;;5050595;28;20056;-61
2023/07/03 15:45:37;;;;;;;0.80;0.40;;;;;;;;;;5028225;28;20435;-60
2023/07/03 15:48:09;;;;;;;2.22;0.73;;;;;;;;;;5031804;28;20163;-59
2023/07/03 15:50:40;;;;;;;1.05;0.50;;;;;;;;;;5011743;28;20632;-60
2023/07/03 15:53:12;;;;;;;1.88;0.63;;;;;;;;;;5031811;28;20125;-61
2023/07/03 15:56:05;;;;;;;1.42;0.60;;;;;;;;;;5029485;28;20021;-60
2023/07/03 15:58:40;;;;;;;1.83;0.65;;;;;;;;;;5031827;28;20028;-60
2023/07/03 16:01:12;;;;;;;1.02;0.50;;;;;;;;;;5031235;28;20148;-60
2023/07/03 16:03:44;;;;;;;1.55;0.60;;;;;;;;;;5032423;28;20013;-60
2023/07/03 16:06:14;;;;;;;1.55;0.43;;;;;;;;;;5030348;28;20029;-60
2023/07/03 16:08:49;;;;;;;2.03;0.57;;;;;;;;;;5031163;28;20090;-60
2023/07/03 16:11:20;;;;;;;0.73;0.40;;;;;;;;;;5032313;28;20055;-60
2023/07/03 16:14:14;;;;;;;1.20;0.57;;;;;;;;;;5031484;28;20029;-60
2023/07/03 16:16:40;;;;;;;1.83;0.73;;;;;;;;;;5030836;28;20049;-61
2023/07/03 16:19:09;;;;;;;1.80;0.75;;;;;;;;;;5022880;28;20029;-60
2023/07/03 16:21:40;;;;;;;1.83;0.50;;;;;;;;;;5014228;28;20021;-60
2023/07/03 16:24:09;;;;;;;2.45;0.75;;;;;;;;;;5032420;28;20026;-60
2023/07/03 16:26:35;;;;;;;1.85;0.60;;;;;;;;;;5030287;28;20040;-61
2023/07/03 16:29:06;;;;;;;1.83;0.77;;;;;;;;;;4989556;28;20033;-61